Time;durP1;ratioP1;P1;durP2;ratioP2;P2;SDS_P1;SDS_P2;PMS_P1;PMS_P2;Temp;Humidity;BMP_temperature;BMP_pressure;BME280_temperature;BME280_humidity;BME280_pressure;Samples;Min_cycle;Max_cycle;Signal;HPM_P1;HPM_P2
2021/05/24 00:01:31;;;;;;;8.00;3.53;;;;;;;10.54;60.49;99313.89;125432;1104;103068;-79
2021/05/24 00:03:59;;;;;;;6.93;3.20;;;;;;;10.52;60.57;99321.13;125404;1104;103125;-78
2021/05/24 00:06:28;;;;;;;10.97;3.40;;;;;;;10.48;60.76;99322.29;125536;1104;102996;-79
2021/05/24 00:08:56;;;;;;;6.57;3.17;;;;;;;10.46;60.71;99326.00;125538;1100;103023;-77
2021/05/24 00:11:25;;;;;;;6.33;3.27;;;;;;;10.41;60.65;99331.64;125351;1104;103122;-77
2021/05/24 00:13:55;;;;;;;12.23;3.77;;;;;;;10.36;60.96;99337.25;125349;1104;103125;-77
2021/05/24 00:16:24;;;;;;;10.07;3.80;;;;;;;10.35;60.98;99335.55;125272;1104;103158;-77
2021/05/24 00:18:53;;;;;;;9.00;3.40;;;;;;;10.35;61.00;99347.97;125143;1107;103075;-76
2021/05/24 00:21:22;;;;;;;8.40;3.50;;;;;;;10.31;60.90;99343.81;125285;1104;103462;-76
2021/05/24 00:23:51;;;;;;;8.77;3.60;;;;;;;10.27;61.06;99346.67;125302;1107;103174;-77
2021/05/24 00:26:20;;;;;;;11.47;4.50;;;;;;;10.26;61.33;99344.13;125429;1104;103194;-77
2021/05/24 00:28:50;;;;;;;10.00;4.00;;;;;;;10.25;61.22;99347.75;125397;1105;103055;-77
2021/05/24 00:31:18;;;;;;;10.97;4.20;;;;;;;10.23;61.15;99353.15;125537;1104;103075;-79
2021/05/24 00:33:47;;;;;;;11.10;4.10;;;;;;;10.20;61.36;99352.52;125421;1104;103020;-77
2021/05/24 00:36:16;;;;;;;9.53;3.83;;;;;;;10.18;61.33;99357.95;125596;1104;103117;-80
2021/05/24 00:38:46;;;;;;;12.03;4.53;;;;;;;10.14;61.57;99351.13;125582;1099;103288;-79
2021/05/24 00:41:18;;;;;;;12.53;4.80;;;;;;;10.12;61.60;99359.19;125400;1100;103136;-80
2021/05/24 00:43:48;;;;;;;11.40;4.87;;;;;;;10.10;61.43;99353.12;125318;1107;103471;-77
2021/05/24 00:46:21;;;;;;;10.83;5.27;;;;;;;10.09;61.61;99362.05;125414;1104;103096;-78
2021/05/24 00:48:49;;;;;;;10.87;4.50;;;;;;;10.08;61.38;99354.19;125295;1107;103020;-78
2021/05/24 00:51:18;;;;;;;14.90;5.50;;;;;;;10.05;61.62;99365.02;125448;1105;102996;-77
2021/05/24 00:53:47;;;;;;;14.40;5.27;;;;;;;10.02;61.65;99365.22;125560;1104;103075;-78
2021/05/24 00:56:18;;;;;;;14.03;5.50;;;;;;;10.01;61.62;99367.00;125449;1104;103065;-78
2021/05/24 00:58:48;;;;;;;13.07;5.57;;;;;;;10.00;61.81;99367.13;125369;1104;103024;-80
2021/05/24 01:01:17;;;;;;;16.23;6.10;;;;;;;9.98;61.61;99376.05;125637;1104;103054;-82
2021/05/24 01:03:45;;;;;;;15.20;5.73;;;;;;;9.97;61.78;99373.50;125553;1104;103090;-80
2021/05/24 01:06:22;;;;;;;17.87;6.90;;;;;;;9.95;61.67;99380.72;125607;1104;103072;-80
2021/05/24 01:08:50;;;;;;;16.27;5.90;;;;;;;9.94;61.94;99392.30;125559;1104;103032;-80
2021/05/24 01:11:22;;;;;;;18.97;6.40;;;;;;;9.91;61.90;99395.99;125583;1100;103023;-82
2021/05/24 01:13:51;;;;;;;18.10;6.97;;;;;;;9.91;61.95;99408.44;125476;1104;103086;-83
2021/05/24 01:16:19;;;;;;;18.93;6.83;;;;;;;9.91;61.92;99416.41;125756;1100;103125;-78
2021/05/24 01:18:48;;;;;;;18.95;7.05;;;;;;;9.91;62.25;99424.38;125431;1104;103037;-77
2021/05/24 01:21:19;;;;;;;19.97;6.93;;;;;;;9.90;62.33;99425.34;126262;1100;103260;-78
2021/05/24 01:23:48;;;;;;;17.40;6.67;;;;;;;9.88;62.31;99428.08;125518;1104;103113;-79
2021/05/24 01:26:20;;;;;;;18.37;6.87;;;;;;;9.86;62.25;99431.80;125426;1107;103131;-79
2021/05/24 01:28:49;;;;;;;16.77;6.47;;;;;;;9.86;62.39;99434.45;125473;1104;103145;-79
2021/05/24 01:31:17;;;;;;;17.77;6.70;;;;;;;9.82;62.49;99437.30;125467;1104;103048;-80
2021/05/24 01:33:46;;;;;;;18.73;7.43;;;;;;;9.82;62.45;99431.98;125347;1105;103470;-78
2021/05/24 01:36:14;;;;;;;21.13;7.73;;;;;;;9.82;62.70;99437.30;125494;1104;102994;-78
2021/05/24 01:38:45;;;;;;;18.75;7.50;;;;;;;9.83;62.38;99443.45;125395;1100;103055;-77
2021/05/24 01:41:16;;;;;;;18.40;6.60;;;;;;;9.82;62.44;99442.62;125432;1104;103074;-77
2021/05/24 01:43:47;;;;;;;19.03;7.73;;;;;;;9.84;62.55;99447.81;125446;1100;103120;-78
2021/05/24 01:46:15;;;;;;;18.57;7.27;;;;;;;9.83;62.45;99454.08;125428;1104;103528;-79
2021/05/24 01:48:46;;;;;;;19.47;7.57;;;;;;;9.81;62.85;99455.98;125558;1100;103132;-79
2021/05/24 01:51:17;;;;;;;20.20;7.80;;;;;;;9.79;62.76;99456.09;125558;1104;103158;-78
2021/05/24 01:53:45;;;;;;;15.67;6.57;;;;;;;9.78;62.62;99450.89;125523;1100;103144;-79
2021/05/24 01:56:15;;;;;;;24.27;8.97;;;;;;;9.77;62.70;99451.84;125276;1104;103114;-78
2021/05/24 01:58:43;;;;;;;17.60;7.13;;;;;;;9.78;62.71;99453.55;126063;1104;101344;-78
2021/05/24 02:01:12;;;;;;;18.73;6.93;;;;;;;9.79;62.85;99449.91;125296;1107;103027;-79
2021/05/24 02:03:40;;;;;;;19.47;7.70;;;;;;;9.79;62.93;99452.56;125218;1107;103090;-78
2021/05/24 02:06:08;;;;;;;21.07;8.10;;;;;;;9.78;62.75;99466.83;125626;1107;103072;-79
2021/05/24 02:08:37;;;;;;;19.47;7.83;;;;;;;9.77;63.05;99473.09;125253;1107;103048;-78
2021/05/24 02:11:05;;;;;;;19.80;7.00;;;;;;;9.75;63.17;99467.86;127111;1107;101057;-78
2021/05/24 02:13:34;;;;;;;18.30;6.83;;;;;;;9.74;62.95;99467.97;125795;1100;101058;-77
2021/05/24 02:16:03;;;;;;;17.47;8.00;;;;;;;9.72;63.13;99472.52;125171;1100;103065;-78
2021/05/24 02:18:32;;;;;;;18.63;8.23;;;;;;;9.72;62.98;99470.70;125165;1107;103072;-78
2021/05/24 02:21:02;;;;;;;20.80;7.83;;;;;;;9.73;63.11;99461.78;126497;1107;103027;-79
2021/05/24 02:23:34;;;;;;;18.90;7.80;;;;;;;9.74;63.14;99466.15;125618;1107;103025;-78
2021/05/24 02:26:02;;;;;;;21.10;8.97;;;;;;;9.76;63.12;99471.39;125406;1100;103691;-79
2021/05/24 02:28:33;;;;;;;21.83;8.37;;;;;;;9.76;63.16;99471.39;125336;1107;103084;-79
2021/05/24 02:31:02;;;;;;;19.90;8.30;;;;;;;9.78;63.22;99480.95;126031;1107;103685;-80
2021/05/24 02:33:30;;;;;;;25.87;10.23;;;;;;;9.75;63.39;99478.48;125395;1108;103087;-79
2021/05/24 02:36:01;;;;;;;21.53;9.67;;;;;;;9.73;63.32;99487.52;125441;1107;103102;-79
2021/05/24 02:38:29;;;;;;;21.93;9.47;;;;;;;9.70;63.41;99485.88;125406;1107;103035;-79
2021/05/24 02:40:57;;;;;;;22.43;9.83;;;;;;;9.67;63.25;99489.59;125426;1107;103133;-78
2021/05/24 02:43:27;;;;;;;22.47;9.00;;;;;;;9.66;63.65;99493.20;125415;1107;102997;-78
2021/05/24 02:45:56;;;;;;;20.23;9.30;;;;;;;9.66;63.41;99498.52;125395;1107;103094;-79
2021/05/24 02:48:26;;;;;;;20.53;9.53;;;;;;;9.68;63.68;99493.09;125392;1107;103097;-76
2021/05/24 02:50:55;;;;;;;20.23;9.07;;;;;;;9.65;63.28;99491.50;125412;1100;103003;-79
2021/05/24 02:53:23;;;;;;;21.97;9.63;;;;;;;9.64;63.66;99496.88;125554;1104;103500;-78
2021/05/24 02:55:51;;;;;;;23.97;9.53;;;;;;;9.66;63.66;99489.67;125503;1104;103247;-77
2021/05/24 02:58:20;;;;;;;22.80;9.70;;;;;;;9.67;63.64;99494.05;125695;1104;103066;-80
2021/05/24 03:00:53;;;;;;;21.10;9.00;;;;;;;9.65;63.81;99498.59;125464;1104;103022;-79
2021/05/24 03:03:23;;;;;;;19.70;9.40;;;;;;;9.62;63.67;99507.63;125524;1100;103093;-78
2021/05/24 03:05:56;;;;;;;19.60;8.50;;;;;;;9.63;63.97;99509.33;125536;1104;103464;-79
2021/05/24 03:08:25;;;;;;;21.23;9.20;;;;;;;9.61;63.80;99516.53;125467;1104;103268;-80
2021/05/24 03:10:53;;;;;;;18.53;8.83;;;;;;;9.61;63.82;99526.28;125492;1100;102997;-79
2021/05/24 03:13:25;;;;;;;21.97;9.07;;;;;;;9.56;64.00;99531.05;125586;1104;103026;-80
2021/05/24 03:15:58;;;;;;;;;;;;;;;9.52;64.01;99538.34;125532;1104;102997;-80
2021/05/24 03:18:26;;;;;;;23.20;9.53;;;;;;;9.47;63.90;99543.07;125545;1100;103000;-80
2021/05/24 03:20:54;;;;;;;23.10;8.77;;;;;;;9.43;64.20;99542.41;125426;1107;103135;-81
2021/05/24 03:23:25;;;;;;;21.70;9.47;;;;;;;9.44;64.16;99536.16;125379;1107;103135;-77
2021/05/24 03:25:55;;;;;;;20.40;8.93;;;;;;;9.44;64.09;99535.28;125394;1100;103150;-80
2021/05/24 03:28:24;;;;;;;23.30;10.07;;;;;;;9.44;63.97;99529.98;125407;1100;103187;-78
2021/05/24 03:30:52;;;;;;;23.60;9.87;;;;;;;9.46;64.19;99528.95;125555;1104;103000;-76
2021/05/24 03:33:20;;;;;;;20.60;9.07;;;;;;;9.50;64.57;99535.79;125527;1104;103107;-78
2021/05/24 03:35:49;;;;;;;22.77;10.57;;;;;;;9.51;64.18;99541.94;125375;1107;103150;-76
2021/05/24 03:38:20;;;;;;;24.97;10.03;;;;;;;9.53;64.17;99546.23;125432;1107;103128;-78
2021/05/24 03:40:48;;;;;;;20.27;8.23;;;;;;;9.54;64.26;99549.72;125425;1105;103084;-78
2021/05/24 03:43:22;;;;;;;24.60;10.20;;;;;;;9.54;64.51;99555.03;125449;1100;103003;-78
2021/05/24 03:45:50;;;;;;;21.23;9.73;;;;;;;9.54;64.26;99560.34;125549;1104;103065;-78
2021/05/24 03:48:21;;;;;;;21.13;9.93;;;;;;;9.55;64.68;99559.40;125413;1107;102991;-78
2021/05/24 03:50:50;;;;;;;21.37;10.30;;;;;;;9.57;64.26;99560.16;125518;1104;102994;-78
2021/05/24 03:53:18;;;;;;;20.47;9.13;;;;;;;9.58;64.23;99564.53;125548;1099;102997;-77
2021/05/24 03:55:46;;;;;;;22.83;10.47;;;;;;;9.59;64.62;99566.23;125398;1107;103158;-77
2021/05/24 03:58:17;;;;;;;22.70;9.80;;;;;;;9.61;64.47;99577.63;125539;1104;104580;-79
2021/05/24 04:00:45;;;;;;;20.57;9.57;;;;;;;9.64;64.48;99579.23;125510;1104;103432;-78
2021/05/24 04:03:18;;;;;;;23.40;10.17;;;;;;;9.66;64.68;99587.95;125487;1104;102996;-76
2021/05/24 04:05:49;;;;;;;24.15;10.85;;;;;;;9.69;64.60;99593.09;125554;1104;103118;-80
2021/05/24 04:08:22;;;;;;;24.33;9.73;;;;;;;9.72;64.57;99595.56;125336;1104;103168;-80
2021/05/24 04:10:57;;;;;;;22.87;10.00;;;;;;;9.77;64.93;99597.95;126114;1104;103118;-79
2021/05/24 04:13:28;;;;;;;23.40;9.93;;;;;;;9.80;64.61;99598.61;125537;1100;103009;-80
2021/05/24 04:15:59;;;;;;;21.43;9.43;;;;;;;9.87;64.84;99600.89;125428;1100;102997;-79
2021/05/24 04:18:34;;;;;;;21.23;8.93;;;;;;;9.89;64.63;99597.18;125524;1104;103018;-79
2021/05/24 04:21:03;;;;;;;22.98;9.55;;;;;;;9.93;65.14;99603.17;125510;1104;102998;-79
2021/05/24 04:23:33;;;;;;;21.00;8.53;;;;;;;9.97;64.58;99599.39;125519;1104;102997;-81
2021/05/24 04:26:01;;;;;;;19.83;8.53;;;;;;;9.98;65.00;99601.94;125807;1104;103176;-80
2021/05/24 04:28:29;;;;;;;20.43;9.00;;;;;;;10.04;64.91;99611.32;125394;1100;103483;-82
2021/05/24 04:30:58;;;;;;;20.87;8.27;;;;;;;10.07;64.69;99603.16;125280;1105;103121;-79
2021/05/24 04:33:27;;;;;;;23.17;8.67;;;;;;;10.12;65.03;99608.20;125371;1105;103200;-79
2021/05/24 04:35:58;;;;;;;20.20;8.23;;;;;;;10.17;64.97;99611.44;125589;1104;103032;-80
2021/05/24 04:38:26;;;;;;;20.37;8.57;;;;;;;10.24;65.05;99614.55;125554;1100;102993;-79
2021/05/24 04:40:55;;;;;;;21.73;8.67;;;;;;;10.30;65.09;99613.30;125451;1107;103139;-80
2021/05/24 04:43:28;;;;;;;21.45;8.40;;;;;;;10.32;65.17;99608.75;125608;1104;102990;-81
2021/05/24 04:45:57;;;;;;;18.57;7.00;;;;;;;10.36;65.00;99616.45;125652;1104;103093;-82
2021/05/24 04:48:25;;;;;;;22.23;8.40;;;;;;;10.39;64.94;99618.92;125545;1105;103108;-80
2021/05/24 04:50:56;;;;;;;20.53;7.87;;;;;;;10.45;64.95;99614.17;125448;1107;103089;-79
2021/05/24 04:53:24;;;;;;;19.83;7.27;;;;;;;10.49;65.09;99615.69;125748;1104;103136;-78
2021/05/24 04:55:53;;;;;;;19.37;7.83;;;;;;;10.55;65.15;99613.51;125923;1100;103086;-79
2021/05/24 04:58:21;;;;;;;19.27;7.50;;;;;;;10.60;65.14;99615.02;125510;1104;103072;-80
2021/05/24 05:00:52;;;;;;;18.03;6.63;;;;;;;10.65;65.20;99620.88;125552;1104;103114;-80
2021/05/24 05:03:23;;;;;;;20.18;7.43;;;;;;;10.69;65.11;99633.03;125497;1104;103172;-80
2021/05/24 05:05:51;;;;;;;16.17;6.37;;;;;;;10.75;65.14;99631.80;126126;1107;102253;-78
2021/05/24 05:08:19;;;;;;;18.40;6.33;;;;;;;10.80;65.15;99635.86;125739;1104;103021;-81
2021/05/24 05:10:49;;;;;;;17.00;6.30;;;;;;;10.85;65.03;99632.89;125451;1107;102997;-78
2021/05/24 05:13:19;;;;;;;15.73;6.37;;;;;;;10.91;65.20;99629.00;125520;1107;103288;-80
2021/05/24 05:15:48;;;;;;;17.53;6.80;;;;;;;10.96;65.14;99625.06;125570;1104;103005;-82
2021/05/24 05:18:18;;;;;;;18.80;6.67;;;;;;;10.99;65.14;99618.70;125565;1104;103071;-78
2021/05/24 05:20:47;;;;;;;15.97;6.10;;;;;;;11.05;65.21;99620.10;125399;1104;103083;-77
2021/05/24 05:23:20;;;;;;;18.45;6.90;;;;;;;11.08;65.13;99623.40;125558;1104;103026;-77
2021/05/24 05:25:48;;;;;;;16.00;6.47;;;;;;;11.12;65.18;99619.59;125415;1104;103388;-78
2021/05/24 05:28:19;;;;;;;15.40;6.27;;;;;;;11.18;65.17;99615.68;125429;1104;102994;-78
2021/05/24 05:30:53;;;;;;;17.57;6.80;;;;;;;11.23;65.23;99615.36;125252;1100;103032;-80
2021/05/24 05:33:23;;;;;;;18.68;7.80;;;;;;;11.26;65.17;99629.31;125587;1107;103000;-78
2021/05/24 05:35:56;;;;;;;15.07;6.17;;;;;;;11.32;65.19;99625.41;125498;1104;103091;-82
2021/05/24 05:38:28;;;;;;;16.70;6.43;;;;;;;11.38;64.95;99626.80;125482;1104;103285;-78
2021/05/24 05:40:58;;;;;;;19.93;6.33;;;;;;;11.41;65.20;99630.09;125228;1107;103037;-77
2021/05/24 05:43:29;;;;;;;17.53;6.27;;;;;;;11.46;65.15;99635.97;125296;1100;103123;-77
2021/05/24 05:45:57;;;;;;;15.63;5.73;;;;;;;11.52;65.28;99640.05;125440;1104;103026;-77
2021/05/24 05:48:26;;;;;;;18.63;6.50;;;;;;;11.57;65.34;99656.58;125355;1107;103152;-76
2021/05/24 05:50:54;;;;;;;16.73;6.60;;;;;;;11.64;65.19;99649.02;125345;1105;103150;-75
2021/05/24 05:53:25;;;;;;;21.37;9.70;;;;;;;11.69;65.22;99652.22;125431;1100;103068;-77
2021/05/24 05:55:53;;;;;;;17.95;7.40;;;;;;;11.79;65.16;99656.93;125728;1104;102993;-77
2021/05/24 05:58:22;;;;;;;18.53;6.90;;;;;;;11.86;65.17;99671.52;125331;1104;103121;-78
2021/05/24 06:00:50;;;;;;;17.03;6.20;;;;;;;11.91;65.27;99664.06;126485;1107;101068;-75
2021/05/24 06:03:21;;;;;;;15.50;6.63;;;;;;;12.01;65.33;99672.34;125315;1100;103023;-74
2021/05/24 06:05:49;;;;;;;18.17;6.33;;;;;;;12.12;65.15;99668.91;125192;1100;103616;-77
2021/05/24 06:08:18;;;;;;;15.27;6.00;;;;;;;12.20;65.42;99664.74;125249;1100;103085;-80
2021/05/24 06:10:46;;;;;;;16.00;6.00;;;;;;;12.31;65.11;99671.14;125360;1099;103028;-79
2021/05/24 06:13:14;;;;;;;16.93;5.40;;;;;;;12.44;65.14;99671.13;125368;1100;103024;-78
2021/05/24 06:15:43;;;;;;;14.97;5.60;;;;;;;12.57;65.22;99671.09;125253;1107;103302;-79
2021/05/24 06:18:12;;;;;;;15.87;5.33;;;;;;;12.72;65.23;99672.67;125242;1100;103260;-76
2021/05/24 06:20:46;;;;;;;16.10;5.50;;;;;;;12.97;64.75;99678.05;125130;1105;103080;-79
2021/05/24 06:23:30;;;;;;;14.47;5.33;;;;;;;13.33;64.67;99670.95;125321;1104;103075;-78
2021/05/24 06:25:58;;;;;;;9.97;4.33;;;;;;;13.69;64.40;99672.69;125093;1107;103125;-77
2021/05/24 06:28:27;;;;;;;13.83;5.07;;;;;;;13.95;64.45;99685.89;125339;1107;103156;-75
2021/05/24 06:30:55;;;;;;;12.83;4.73;;;;;;;14.00;64.83;99688.20;125358;1100;103115;-76
2021/05/24 06:33:23;;;;;;;14.47;4.57;;;;;;;14.08;64.78;99685.80;125196;1104;103021;-76
2021/05/24 06:35:52;;;;;;;12.80;4.23;;;;;;;14.14;65.07;99679.10;125275;1104;103123;-73
2021/05/24 06:38:20;;;;;;;12.70;4.30;;;;;;;14.13;64.85;99680.94;125127;1107;103136;-79
2021/05/24 06:40:48;;;;;;;11.00;4.03;;;;;;;14.20;65.12;99675.12;125592;1104;102991;-76
2021/05/24 06:43:17;;;;;;;11.90;4.45;;;;;;;14.24;64.82;99679.26;125158;1107;103046;-75
2021/05/24 06:45:45;;;;;;;11.37;4.43;;;;;;;14.32;65.02;99686.67;125121;1107;103013;-76
2021/05/24 06:48:14;;;;;;;10.50;4.20;;;;;;;14.40;64.97;99681.58;125218;1107;103000;-76
2021/05/24 06:50:42;;;;;;;11.90;4.00;;;;;;;14.51;64.92;99684.23;125237;1107;103153;-74
2021/05/24 06:53:10;;;;;;;11.40;3.50;;;;;;;14.62;64.93;99682.53;125401;1104;103262;-77
2021/05/24 06:55:39;;;;;;;8.93;3.93;;;;;;;14.79;64.88;99684.75;125437;1104;102994;-76
2021/05/24 06:58:08;;;;;;;17.13;5.20;;;;;;;16.55;62.15;99664.76;125415;1104;103022;-78
2021/05/24 07:00:36;;;;;;;13.73;4.80;;;;;;;18.73;61.41;99652.73;125183;1105;103235;-76
2021/05/24 07:03:04;;;;;;;21.20;5.73;;;;;;;20.88;61.19;99653.55;125270;1100;102991;-75
2021/05/24 07:05:33;;;;;;;10.10;3.40;;;;;;;22.74;61.55;99653.97;125115;1105;103190;-75
2021/05/24 07:08:01;;;;;;;9.35;3.75;;;;;;;23.99;60.80;99643.95;125247;1105;103270;-75
2021/05/24 07:10:29;;;;;;;12.30;3.60;;;;;;;25.79;60.80;99656.38;125419;1099;103094;-75
2021/05/24 07:12:58;;;;;;;9.17;4.00;;;;;;;27.37;60.58;99657.61;125397;1099;102991;-77
2021/05/24 07:15:26;;;;;;;8.45;3.70;;;;;;;28.00;60.89;99652.83;125463;1104;103112;-76
2021/05/24 07:17:55;;;;;;;8.30;3.30;;;;;;;29.21;60.28;99656.05;125221;1107;102991;-75
2021/05/24 07:20:24;;;;;;;9.27;3.43;;;;;;;30.06;59.43;99648.48;125405;1104;103250;-76
2021/05/24 07:22:53;;;;;;;8.80;3.30;;;;;;;30.78;58.98;99648.98;125376;1104;103000;-75
2021/05/24 07:25:21;;;;;;;6.23;2.90;;;;;;;31.66;58.80;99651.33;125415;1100;103025;-75
2021/05/24 07:27:49;;;;;;;5.93;2.93;;;;;;;32.08;57.89;99643.83;125286;1105;103032;-74
2021/05/24 07:30:18;;;;;;;4.47;2.43;;;;;;;32.69;57.93;99650.94;125343;1104;103093;-74
2021/05/24 07:32:47;;;;;;;6.47;2.70;;;;;;;33.25;57.64;99653.16;125280;1104;103610;-73
2021/05/24 07:35:15;;;;;;;5.67;2.53;;;;;;;33.75;56.85;99653.48;125413;1099;102995;-75
2021/05/24 07:37:44;;;;;;;6.97;2.50;;;;;;;33.66;55.86;99653.05;125231;1100;103094;-76
2021/05/24 07:40:12;;;;;;;4.55;2.20;;;;;;;33.23;56.08;99658.08;125410;1100;103025;-74
2021/05/24 07:42:41;;;;;;;3.80;2.47;;;;;;;33.43;56.14;99649.37;125489;1104;104530;-74
2021/05/24 07:45:10;;;;;;;6.55;2.50;;;;;;;34.00;55.83;99661.36;125143;1100;103190;-75
2021/05/24 07:47:39;;;;;;;4.63;2.20;;;;;;;34.60;54.74;99666.34;125276;1107;102995;-76
2021/05/24 07:50:09;;;;;;;5.73;2.50;;;;;;;35.36;54.26;99662.80;125260;1105;103051;-74
2021/05/24 07:52:38;;;;;;;4.80;2.53;;;;;;;35.34;52.59;99667.75;125433;1104;103145;-76
2021/05/24 07:55:07;;;;;;;6.90;2.77;;;;;;;34.33;52.92;99665.14;125405;1104;104494;-76
2021/05/24 07:57:38;;;;;;;6.77;2.83;;;;;;;33.72;51.97;99671.35;125160;1100;103322;-77
2021/05/24 08:00:10;;;;;;;7.95;3.15;;;;;;;32.87;51.58;99671.99;125243;1105;103171;-75
2021/05/24 08:02:41;;;;;;;7.63;3.27;;;;;;;31.24;52.21;99677.75;125390;1107;103024;-75
2021/05/24 08:05:14;;;;;;;7.33;3.10;;;;;;;31.18;50.40;99667.70;125438;1104;103557;-75
2021/05/24 08:07:43;;;;;;;8.85;3.10;;;;;;;31.26;50.11;99661.88;125342;1100;103100;-75
2021/05/24 08:10:15;;;;;;;6.10;2.60;;;;;;;31.52;50.12;99662.53;125247;1100;103165;-75
2021/05/24 08:12:47;;;;;;;11.20;4.90;;;;;;;31.71;49.66;99660.53;125257;1105;103080;-73
2021/05/24 08:15:22;;;;;;;6.30;3.73;;;;;;;31.64;49.86;99659.80;125425;1100;103130;-74
2021/05/24 08:17:51;;;;;;;7.57;3.00;;;;;;;32.04;48.88;99652.81;125444;1104;103083;-81
2021/05/24 08:20:20;;;;;;;7.45;2.40;;;;;;;32.12;48.44;99655.21;125326;1099;102994;-75
2021/05/24 08:22:49;;;;;;;6.23;2.33;;;;;;;32.02;47.15;99654.97;125483;1100;102998;-81
2021/05/24 08:25:17;;;;;;;3.55;2.30;;;;;;;31.50;47.04;99656.43;125441;1100;103201;-75
2021/05/24 08:27:51;;;;;;;5.47;2.17;;;;;;;31.18;46.45;99659.45;125275;1100;103086;-76
2021/05/24 08:30:32;;;;;;;7.67;2.67;;;;;;;31.29;46.85;99653.16;125426;1100;103115;-80
2021/05/24 08:33:01;;;;;;;4.93;2.70;;;;;;;31.70;46.06;99658.03;125486;1104;103099;-79
2021/05/24 08:35:29;;;;;;;8.23;2.30;;;;;;;31.44;45.91;99651.87;125529;1104;103018;-79
2021/05/24 08:37:57;;;;;;;6.03;2.57;;;;;;;31.43;45.55;99644.70;125596;1104;102997;-79
2021/05/24 08:40:26;;;;;;;5.80;2.50;;;;;;;31.27;45.24;99647.06;125338;1100;102990;-78
2021/05/24 08:42:59;;;;;;;7.10;2.60;;;;;;;30.93;45.02;99652.16;125654;1107;101934;-90
2021/05/24 08:45:30;;;;;;;6.45;2.55;;;;;;;30.39;44.74;99636.31;125783;1104;103096;-83
2021/05/24 08:48:00;;;;;;;;;;;;;;;30.28;43.77;99637.92;125595;1107;103095;-80
2021/05/24 08:50:28;;;;;;;9.33;2.90;;;;;;;30.16;44.32;99645.22;125830;1104;103060;-84
2021/05/24 08:52:56;;;;;;;3.37;2.23;;;;;;;30.30;43.99;99641.27;125738;1104;103075;-88
2021/05/24 08:55:26;;;;;;;4.87;2.33;;;;;;;30.32;42.83;99643.78;125589;1105;103092;-83
2021/05/24 08:57:54;;;;;;;5.60;2.80;;;;;;;30.17;42.72;99641.41;125580;1100;102995;-87
2021/05/24 09:00:26;;;;;;;5.17;2.43;;;;;;;30.65;42.90;99637.09;125555;1107;103069;-78
2021/05/24 09:02:57;;;;;;;5.50;2.40;;;;;;;30.99;42.98;99640.22;125396;1104;103114;-73
2021/05/24 09:05:31;;;;;;;3.83;2.15;;;;;;;31.11;41.98;99622.95;125664;1104;103052;-84
2021/05/24 09:08:04;;;;;;;4.67;2.30;;;;;;;30.83;42.20;99622.48;125586;1107;103148;-80
2021/05/24 09:10:36;;;;;;;4.27;2.30;;;;;;;30.36;42.31;99617.56;125687;1100;103071;-77
2021/05/24 09:13:19;;;;;;;3.57;2.13;;;;;;;30.48;41.77;99625.86;125343;1107;103026;-83
2021/05/24 09:15:51;;;;;;;7.47;2.60;;;;;;;30.37;41.83;99613.75;125697;1104;103028;-80
2021/05/24 09:18:20;;;;;;;6.83;2.40;;;;;;;30.82;41.71;99614.50;125765;1100;103042;-86
2021/05/24 09:20:53;;;;;;;4.93;2.20;;;;;;;30.62;40.12;99614.76;125766;1104;103113;-90
2021/05/24 09:23:32;;;;;;;5.37;2.10;;;;;;;29.28;40.71;99611.34;125808;1104;103883;-82
2021/05/24 09:26:04;;;;;;;4.27;2.37;;;;;;;28.94;40.85;99620.59;125724;1099;101716;-88
2021/05/24 09:28:46;;;;;;;4.73;2.50;;;;;;;28.18;40.10;99617.50;125579;1104;103054;-84
2021/05/24 09:31:20;;;;;;;6.67;2.40;;;;;;;27.52;39.77;99602.81;125788;1099;102997;-82
2021/05/24 09:33:53;;;;;;;5.43;2.10;;;;;;;26.83;39.42;99602.05;125794;1100;103024;-84
2021/05/24 09:36:25;;;;;;;5.40;2.23;;;;;;;26.30;39.21;99598.02;126058;1104;103145;-82
2021/05/24 09:39:05;;;;;;;5.63;1.90;;;;;;;25.90;39.45;99590.44;126062;1100;103445;-88
2021/05/24 09:41:47;;;;;;;3.60;2.15;;;;;;;25.72;39.10;99593.67;125690;1107;103027;-81
2021/05/24 09:44:28;;;;;;;4.80;2.00;;;;;;;25.64;39.27;99586.49;125288;1104;103094;-81
2021/05/24 09:46:58;;;;;;;5.23;2.00;;;;;;;25.62;39.30;99590.44;125830;1100;103000;-82
2021/05/24 09:49:30;;;;;;;5.73;2.23;;;;;;;25.39;39.37;99584.15;125758;1106;103000;-82
2021/05/24 09:51:59;;;;;;;4.33;2.10;;;;;;;25.21;38.43;99589.23;125767;1104;103043;-83
2021/05/24 09:54:37;;;;;;;4.53;2.47;;;;;;;24.88;38.78;99584.27;125808;1104;102997;-82
2021/05/24 09:57:11;;;;;;;5.20;2.30;;;;;;;24.90;38.85;99580.34;125686;1107;103107;-83
2021/05/24 09:59:40;;;;;;;4.37;1.93;;;;;;;24.88;38.79;99584.27;125898;1099;103104;-82
2021/05/24 10:02:10;;;;;;;5.03;2.33;;;;;;;24.72;38.25;99585.34;125872;1104;102221;-82
2021/05/24 10:04:38;;;;;;;9.27;1.97;;;;;;;24.43;38.16;99582.49;125984;1104;102997;-82
2021/05/24 10:07:08;;;;;;;6.03;1.93;;;;;;;24.23;38.75;99577.63;125886;1104;103127;-81
2021/05/24 10:09:36;;;;;;;3.93;1.70;;;;;;;24.12;38.90;99580.80;125133;1107;103083;-83
2021/05/24 10:12:06;;;;;;;5.30;1.93;;;;;;;24.12;38.68;99586.23;125696;1105;103174;-84
2021/05/24 10:14:34;;;;;;;5.67;1.80;;;;;;;23.93;38.53;99590.33;125783;1104;103040;-83
2021/05/24 10:17:05;;;;;;;4.17;1.90;;;;;;;23.82;38.18;99585.38;125665;1105;103160;-83
2021/05/24 10:19:35;;;;;;;4.70;1.67;;;;;;;23.72;37.72;99582.91;125845;1099;103190;-82
2021/05/24 10:22:06;;;;;;;4.60;1.70;;;;;;;23.30;38.11;99580.56;125721;1100;103013;-78
2021/05/24 10:24:34;;;;;;;3.83;1.37;;;;;;;22.95;38.01;99563.02;125384;1104;103620;-78
2021/05/24 10:27:05;;;;;;;4.47;1.80;;;;;;;22.67;37.95;99560.80;125278;1100;103093;-78
2021/05/24 10:29:34;;;;;;;4.90;1.90;;;;;;;22.52;37.94;99552.58;125216;1105;103096;-76
2021/05/24 10:32:07;;;;;;;6.27;2.10;;;;;;;22.35;37.99;99549.94;125331;1100;103068;-78
2021/05/24 10:34:39;;;;;;;7.00;2.00;;;;;;;22.12;37.76;99552.58;125581;1107;103043;-74
2021/05/24 10:37:09;;;;;;;4.57;1.50;;;;;;;21.89;37.47;99544.36;125325;1107;103073;-77
2021/05/24 10:39:46;;;;;;;;;;;;;;;21.65;37.52;99535.26;125392;1104;103094;-73
2021/05/24 10:42:17;;;;;;;3.10;1.90;;;;;;;21.45;37.49;99532.05;125226;1100;103473;-73
2021/05/24 10:44:49;;;;;;;8.17;1.90;;;;;;;21.33;37.46;99532.42;124856;1107;103007;-74
2021/05/24 10:47:26;;;;;;;6.28;1.85;;;;;;;21.17;37.65;99530.56;126149;1104;103026;-71
2021/05/24 10:50:05;;;;;;;6.30;1.80;;;;;;;21.14;37.60;99525.50;125443;1099;103016;-76
2021/05/24 10:52:37;;;;;;;7.47;2.07;;;;;;;21.16;37.50;99531.59;125587;1100;103125;-75
2021/05/24 10:55:25;;;;;;;5.23;1.73;;;;;;;21.24;37.93;99530.73;125398;1105;103243;-74
2021/05/24 10:58:09;;;;;;;5.00;1.60;;;;;;;21.32;37.75;99528.02;125359;1105;103428;-79
2021/05/24 11:01:00;;;;;;;7.07;1.57;;;;;;;21.46;37.67;99517.50;125479;1104;103117;-74
2021/05/24 11:03:33;;;;;;;4.27;1.60;;;;;;;21.32;37.26;99527.16;125518;1104;103159;-75
2021/05/24 11:06:10;;;;;;;7.17;1.73;;;;;;;21.09;37.23;99523.28;125218;1107;103095;-74
2021/05/24 11:08:48;;;;;;;4.80;1.80;;;;;;;20.98;37.62;99523.64;125293;1104;103148;-74
2021/05/24 11:11:24;;;;;;;4.70;2.37;;;;;;;20.98;37.43;99526.34;125313;1100;103000;-73
2021/05/24 11:14:01;;;;;;;2.45;1.50;;;;;;;21.11;37.31;99526.66;125433;1104;103460;-71
2021/05/24 11:16:33;;;;;;;4.83;1.77;;;;;;;21.20;37.94;99522.09;125547;1099;103014;-71
2021/05/24 11:19:18;;;;;;;4.37;1.67;;;;;;;21.32;37.60;99529.87;125447;1104;102998;-76
2021/05/24 11:21:55;;;;;;;5.60;1.40;;;;;;;21.39;37.48;99523.63;125404;1104;103024;-74
2021/05/24 11:24:42;;;;;;;4.67;1.93;;;;;;;21.43;37.82;99521.41;125478;1105;103065;-76
2021/05/24 11:27:16;;;;;;;5.37;1.83;;;;;;;21.46;37.50;99522.91;125356;1100;103029;-74
2021/05/24 11:29:49;;;;;;;4.77;2.10;;;;;;;21.40;37.54;99521.75;125345;1100;103030;-73